sensor_id;sensor_type;location;lat;lon;timestamp;P1;durP1;ratioP1;P2;durP2;ratioP2
40244;SDS011;25963;42.694;23.600;2024-02-14T00:01:00;19.40;;;14.13;;
40244;SDS011;25963;42.694;23.600;2024-02-14T00:03:25;15.88;;;11.18;;
40244;SDS011;25963;42.694;23.600;2024-02-14T00:05:51;17.75;;;11.60;;
40244;SDS011;25963;42.694;23.600;2024-02-14T00:08:17;20.27;;;11.73;;
40244;SDS011;25963;42.694;23.600;2024-02-14T00:10:43;16.48;;;11.80;;
40244;SDS011;25963;42.694;23.600;2024-02-14T00:13:10;21.88;;;13.95;;
40244;SDS011;25963;42.694;23.600;2024-02-14T00:15:35;17.45;;;10.98;;
40244;SDS011;25963;42.694;23.600;2024-02-14T00:18:01;18.55;;;11.90;;
40244;SDS011;25963;42.694;23.600;2024-02-14T00:20:27;13.02;;;9.73;;
40244;SDS011;25963;42.694;23.600;2024-02-14T00:22:52;16.27;;;10.35;;
40244;SDS011;25963;42.694;23.600;2024-02-14T00:25:18;13.65;;;8.98;;
40244;SDS011;25963;42.694;23.600;2024-02-14T00:27:43;16.00;;;9.65;;
40244;SDS011;25963;42.694;23.600;2024-02-14T00:30:08;15.68;;;10.15;;
40244;SDS011;25963;42.694;23.600;2024-02-14T00:32:35;16.55;;;11.05;;
40244;SDS011;25963;42.694;23.600;2024-02-14T00:35:00;13.50;;;10.27;;
40244;SDS011;25963;42.694;23.600;2024-02-14T00:37:26;15.30;;;11.18;;
40244;SDS011;25963;42.694;23.600;2024-02-14T00:39:52;17.90;;;10.23;;
40244;SDS011;25963;42.694;23.600;2024-02-14T00:42:18;18.63;;;10.68;;
40244;SDS011;25963;42.694;23.600;2024-02-14T00:44:44;13.27;;;9.82;;
40244;SDS011;25963;42.694;23.600;2024-02-14T00:47:09;11.73;;;8.02;;
40244;SDS011;25963;42.694;23.600;2024-02-14T00:49:35;14.23;;;9.63;;
40244;SDS011;25963;42.694;23.600;2024-02-14T00:52:01;16.50;;;9.93;;
40244;SDS011;25963;42.694;23.600;2024-02-14T00:54:26;17.27;;;10.77;;
40244;SDS011;25963;42.694;23.600;2024-02-14T00:56:52;14.95;;;10.57;;
40244;SDS011;25963;42.694;23.600;2024-02-14T00:59:17;15.35;;;10.93;;
40244;SDS011;25963;42.694;23.600;2024-02-14T01:01:43;18.42;;;11.73;;
40244;SDS011;25963;42.694;23.600;2024-02-14T01:04:09;17.63;;;11.07;;
40244;SDS011;25963;42.694;23.600;2024-02-14T01:06:35;19.35;;;12.10;;
40244;SDS011;25963;42.694;23.600;2024-02-14T01:09:00;16.08;;;11.73;;
40244;SDS011;25963;42.694;23.600;2024-02-14T01:11:26;18.55;;;11.73;;
40244;SDS011;25963;42.694;23.600;2024-02-14T01:13:51;18.92;;;11.30;;
40244;SDS011;25963;42.694;23.600;2024-02-14T01:16:17;17.50;;;12.70;;
40244;SDS011;25963;42.694;23.600;2024-02-14T01:18:43;20.27;;;12.95;;
40244;SDS011;25963;42.694;23.600;2024-02-14T01:21:08;19.05;;;11.63;;
40244;SDS011;25963;42.694;23.600;2024-02-14T01:23:34;16.50;;;11.18;;
40244;SDS011;25963;42.694;23.600;2024-02-14T01:25:59;19.88;;;11.85;;
40244;SDS011;25963;42.694;23.600;2024-02-14T01:28:25;22.70;;;13.65;;
40244;SDS011;25963;42.694;23.600;2024-02-14T01:30:51;18.55;;;12.20;;
40244;SDS011;25963;42.694;23.600;2024-02-14T01:33:16;18.48;;;11.77;;
40244;SDS011;25963;42.694;23.600;2024-02-14T01:35:41;21.58;;;12.65;;
40244;SDS011;25963;42.694;23.600;2024-02-14T01:38:07;19.38;;;12.10;;
40244;SDS011;25963;42.694;23.600;2024-02-14T01:40:33;17.55;;;10.93;;
40244;SDS011;25963;42.694;23.600;2024-02-14T01:42:58;15.35;;;10.30;;
40244;SDS011;25963;42.694;23.600;2024-02-14T01:45:24;16.88;;;11.43;;
40244;SDS011;25963;42.694;23.600;2024-02-14T01:47:49;17.50;;;10.82;;
40244;SDS011;25963;42.694;23.600;2024-02-14T01:50:15;16.23;;;10.48;;
40244;SDS011;25963;42.694;23.600;2024-02-14T01:52:41;15.43;;;10.77;;
40244;SDS011;25963;42.694;23.600;2024-02-14T01:55:09;15.48;;;10.63;;
40244;SDS011;25963;42.694;23.600;2024-02-14T01:57:37;16.23;;;10.13;;
40244;SDS011;25963;42.694;23.600;2024-02-14T02:00:03;15.82;;;10.00;;
40244;SDS011;25963;42.694;23.600;2024-02-14T02:02:33;16.13;;;10.15;;
40244;SDS011;25963;42.694;23.600;2024-02-14T02:05:01;15.88;;;10.50;;
40244;SDS011;25963;42.694;23.600;2024-02-14T02:07:27;15.25;;;10.35;;
40244;SDS011;25963;42.694;23.600;2024-02-14T02:09:52;18.15;;;11.40;;
40244;SDS011;25963;42.694;23.600;2024-02-14T02:12:17;15.15;;;10.25;;
40244;SDS011;25963;42.694;23.600;2024-02-14T02:14:43;15.65;;;10.80;;
40244;SDS011;25963;42.694;23.600;2024-02-14T02:17:08;16.92;;;10.73;;
40244;SDS011;25963;42.694;23.600;2024-02-14T02:19:36;15.60;;;10.57;;
40244;SDS011;25963;42.694;23.600;2024-02-14T02:22:01;16.90;;;10.35;;
40244;SDS011;25963;42.694;23.600;2024-02-14T02:24:27;16.70;;;10.93;;
40244;SDS011;25963;42.694;23.600;2024-02-14T02:26:52;19.58;;;11.73;;
40244;SDS011;25963;42.694;23.600;2024-02-14T02:29:18;16.30;;;10.88;;
40244;SDS011;25963;42.694;23.600;2024-02-14T02:31:44;18.88;;;11.23;;
40244;SDS011;25963;42.694;23.600;2024-02-14T02:34:10;17.83;;;11.07;;
40244;SDS011;25963;42.694;23.600;2024-02-14T02:36:36;18.75;;;11.52;;
40244;SDS011;25963;42.694;23.600;2024-02-14T02:39:03;18.42;;;11.70;;
40244;SDS011;25963;42.694;23.600;2024-02-14T02:41:29;19.63;;;12.73;;
40244;SDS011;25963;42.694;23.600;2024-02-14T02:43:56;16.05;;;11.43;;
40244;SDS011;25963;42.694;23.600;2024-02-14T02:46:22;17.20;;;11.90;;
40244;SDS011;25963;42.694;23.600;2024-02-14T02:48:47;19.27;;;12.45;;
40244;SDS011;25963;42.694;23.600;2024-02-14T02:51:15;18.67;;;11.98;;
40244;SDS011;25963;42.694;23.600;2024-02-14T02:53:41;22.15;;;12.57;;
40244;SDS011;25963;42.694;23.600;2024-02-14T02:56:07;19.23;;;13.07;;
40244;SDS011;25963;42.694;23.600;2024-02-14T02:58:32;19.17;;;11.32;;
40244;SDS011;25963;42.694;23.600;2024-02-14T03:00:58;20.67;;;11.50;;
40244;SDS011;25963;42.694;23.600;2024-02-14T03:03:24;18.73;;;12.23;;
40244;SDS011;25963;42.694;23.600;2024-02-14T03:05:52;18.58;;;12.38;;
40244;SDS011;25963;42.694;23.600;2024-02-14T03:08:20;19.38;;;12.27;;
40244;SDS011;25963;42.694;23.600;2024-02-14T03:10:46;20.60;;;12.32;;
40244;SDS011;25963;42.694;23.600;2024-02-14T03:13:12;20.65;;;12.43;;
40244;SDS011;25963;42.694;23.600;2024-02-14T03:15:37;19.92;;;12.43;;
40244;SDS011;25963;42.694;23.600;2024-02-14T03:18:03;23.05;;;12.73;;
40244;SDS011;25963;42.694;23.600;2024-02-14T03:20:34;18.17;;;12.20;;
40244;SDS011;25963;42.694;23.600;2024-02-14T03:23:00;20.08;;;12.10;;
40244;SDS011;25963;42.694;23.600;2024-02-14T03:25:25;20.00;;;12.23;;
40244;SDS011;25963;42.694;23.600;2024-02-14T03:27:51;16.70;;;12.07;;
40244;SDS011;25963;42.694;23.600;2024-02-14T03:30:19;20.65;;;12.32;;
40244;SDS011;25963;42.694;23.600;2024-02-14T03:32:48;20.92;;;13.60;;
40244;SDS011;25963;42.694;23.600;2024-02-14T03:35:14;20.60;;;12.60;;
40244;SDS011;25963;42.694;23.600;2024-02-14T03:37:40;21.80;;;13.05;;
40244;SDS011;25963;42.694;23.600;2024-02-14T03:40:07;19.63;;;13.25;;
40244;SDS011;25963;42.694;23.600;2024-02-14T03:42:36;21.27;;;13.02;;
40244;SDS011;25963;42.694;23.600;2024-02-14T03:45:04;18.45;;;12.13;;
40244;SDS011;25963;42.694;23.600;2024-02-14T03:47:34;19.65;;;13.40;;
40244;SDS011;25963;42.694;23.600;2024-02-14T03:50:00;20.33;;;12.43;;
40244;SDS011;25963;42.694;23.600;2024-02-14T03:52:27;18.10;;;12.40;;
40244;SDS011;25963;42.694;23.600;2024-02-14T03:54:52;20.10;;;12.65;;
40244;SDS011;25963;42.694;23.600;2024-02-14T03:57:17;18.83;;;12.48;;
40244;SDS011;25963;42.694;23.600;2024-02-14T03:59:43;20.05;;;13.02;;
40244;SDS011;25963;42.694;23.600;2024-02-14T04:02:09;21.40;;;12.57;;
40244;SDS011;25963;42.694;23.600;2024-02-14T04:04:36;17.95;;;12.40;;
40244;SDS011;25963;42.694;23.600;2024-02-14T04:07:02;20.17;;;13.40;;
40244;SDS011;25963;42.694;23.600;2024-02-14T04:09:28;23.50;;;13.15;;
40244;SDS011;25963;42.694;23.600;2024-02-14T04:11:53;22.50;;;12.88;;
40244;SDS011;25963;42.694;23.600;2024-02-14T04:14:19;24.10;;;13.40;;
40244;SDS011;25963;42.694;23.600;2024-02-14T04:16:44;25.02;;;14.95;;
40244;SDS011;25963;42.694;23.600;2024-02-14T04:19:10;23.52;;;15.32;;
40244;SDS011;25963;42.694;23.600;2024-02-14T04:21:36;22.55;;;13.95;;
40244;SDS011;25963;42.694;23.600;2024-02-14T04:24:03;27.55;;;15.55;;
40244;SDS011;25963;42.694;23.600;2024-02-14T04:26:28;22.20;;;14.05;;
40244;SDS011;25963;42.694;23.600;2024-02-14T04:28:54;23.80;;;15.07;;
40244;SDS011;25963;42.694;23.600;2024-02-14T04:31:19;25.55;;;16.38;;
40244;SDS011;25963;42.694;23.600;2024-02-14T04:33:45;27.45;;;16.40;;
40244;SDS011;25963;42.694;23.600;2024-02-14T04:36:17;23.83;;;13.98;;
40244;SDS011;25963;42.694;23.600;2024-02-14T04:38:46;25.13;;;15.30;;
40244;SDS011;25963;42.694;23.600;2024-02-14T04:41:12;23.13;;;14.50;;
40244;SDS011;25963;42.694;23.600;2024-02-14T04:43:37;27.33;;;15.25;;
40244;SDS011;25963;42.694;23.600;2024-02-14T04:46:03;25.70;;;15.98;;
40244;SDS011;25963;42.694;23.600;2024-02-14T04:48:32;26.23;;;16.30;;
40244;SDS011;25963;42.694;23.600;2024-02-14T04:50:57;25.48;;;15.43;;
40244;SDS011;25963;42.694;23.600;2024-02-14T04:53:23;25.77;;;16.85;;
40244;SDS011;25963;42.694;23.600;2024-02-14T04:55:48;25.05;;;16.58;;
40244;SDS011;25963;42.694;23.600;2024-02-14T04:58:14;24.90;;;17.35;;
40244;SDS011;25963;42.694;23.600;2024-02-14T05:00:39;26.83;;;16.17;;
40244;SDS011;25963;42.694;23.600;2024-02-14T05:03:05;26.27;;;15.90;;
40244;SDS011;25963;42.694;23.600;2024-02-14T05:05:30;24.23;;;15.50;;
40244;SDS011;25963;42.694;23.600;2024-02-14T05:07:58;27.65;;;16.20;;
40244;SDS011;25963;42.694;23.600;2024-02-14T05:10:24;30.88;;;18.42;;
40244;SDS011;25963;42.694;23.600;2024-02-14T05:12:49;24.55;;;16.75;;
40244;SDS011;25963;42.694;23.600;2024-02-14T05:15:15;29.17;;;18.80;;
40244;SDS011;25963;42.694;23.600;2024-02-14T05:17:41;27.38;;;17.40;;
40244;SDS011;25963;42.694;23.600;2024-02-14T05:20:08;30.88;;;18.58;;
40244;SDS011;25963;42.694;23.600;2024-02-14T05:22:35;29.60;;;18.98;;
40244;SDS011;25963;42.694;23.600;2024-02-14T05:25:01;33.60;;;19.33;;
40244;SDS011;25963;42.694;23.600;2024-02-14T05:27:27;50.22;;;30.55;;
40244;SDS011;25963;42.694;23.600;2024-02-14T05:29:52;34.78;;;21.98;;
40244;SDS011;25963;42.694;23.600;2024-02-14T05:32:18;46.03;;;29.73;;
40244;SDS011;25963;42.694;23.600;2024-02-14T05:34:43;31.08;;;20.63;;
40244;SDS011;25963;42.694;23.600;2024-02-14T05:37:09;47.70;;;34.42;;
40244;SDS011;25963;42.694;23.600;2024-02-14T05:39:34;31.25;;;22.85;;
40244;SDS011;25963;42.694;23.600;2024-02-14T05:41:59;34.53;;;20.63;;
40244;SDS011;25963;42.694;23.600;2024-02-14T05:44:25;24.33;;;15.88;;
40244;SDS011;25963;42.694;23.600;2024-02-14T05:46:52;25.50;;;17.20;;
40244;SDS011;25963;42.694;23.600;2024-02-14T05:49:18;27.88;;;17.20;;
40244;SDS011;25963;42.694;23.600;2024-02-14T05:51:43;24.67;;;16.75;;
40244;SDS011;25963;42.694;23.600;2024-02-14T05:54:08;26.63;;;17.25;;
40244;SDS011;25963;42.694;23.600;2024-02-14T05:56:34;26.23;;;17.65;;
40244;SDS011;25963;42.694;23.600;2024-02-14T05:58:59;30.48;;;19.15;;
40244;SDS011;25963;42.694;23.600;2024-02-14T06:01:24;28.42;;;17.60;;
40244;SDS011;25963;42.694;23.600;2024-02-14T06:03:50;26.67;;;17.20;;
40244;SDS011;25963;42.694;23.600;2024-02-14T06:06:15;30.60;;;18.63;;
40244;SDS011;25963;42.694;23.600;2024-02-14T06:08:41;26.67;;;17.70;;
40244;SDS011;25963;42.694;23.600;2024-02-14T06:11:06;43.10;;;22.55;;
40244;SDS011;25963;42.694;23.600;2024-02-14T06:13:31;33.58;;;19.50;;
40244;SDS011;25963;42.694;23.600;2024-02-14T06:15:58;30.23;;;19.23;;
40244;SDS011;25963;42.694;23.600;2024-02-14T06:18:24;33.88;;;20.90;;
40244;SDS011;25963;42.694;23.600;2024-02-14T06:20:49;48.90;;;25.50;;
40244;SDS011;25963;42.694;23.600;2024-02-14T06:23:15;33.35;;;20.85;;
40244;SDS011;25963;42.694;23.600;2024-02-14T06:25:40;35.08;;;20.92;;
40244;SDS011;25963;42.694;23.600;2024-02-14T06:28:06;34.22;;;20.83;;
40244;SDS011;25963;42.694;23.600;2024-02-14T06:30:31;29.67;;;19.25;;
40244;SDS011;25963;42.694;23.600;2024-02-14T06:32:56;30.95;;;19.70;;
40244;SDS011;25963;42.694;23.600;2024-02-14T06:35:25;29.65;;;18.30;;
40244;SDS011;25963;42.694;23.600;2024-02-14T06:37:51;30.80;;;19.88;;
40244;SDS011;25963;42.694;23.600;2024-02-14T06:40:16;29.98;;;19.88;;
40244;SDS011;25963;42.694;23.600;2024-02-14T06:42:41;30.85;;;19.40;;
40244;SDS011;25963;42.694;23.600;2024-02-14T06:45:07;29.52;;;19.60;;
40244;SDS011;25963;42.694;23.600;2024-02-14T06:47:33;31.58;;;21.27;;
40244;SDS011;25963;42.694;23.600;2024-02-14T06:49:58;30.15;;;20.00;;
40244;SDS011;25963;42.694;23.600;2024-02-14T06:52:24;37.50;;;23.27;;
40244;SDS011;25963;42.694;23.600;2024-02-14T06:54:49;34.97;;;20.00;;
40244;SDS011;25963;42.694;23.600;2024-02-14T06:57:14;33.42;;;22.02;;
40244;SDS011;25963;42.694;23.600;2024-02-14T06:59:40;32.13;;;21.98;;
40244;SDS011;25963;42.694;23.600;2024-02-14T07:02:05;30.90;;;19.95;;
40244;SDS011;25963;42.694;23.600;2024-02-14T07:04:31;33.20;;;22.43;;
40244;SDS011;25963;42.694;23.600;2024-02-14T07:06:57;34.22;;;21.27;;
40244;SDS011;25963;42.694;23.600;2024-02-14T07:09:23;36.42;;;25.67;;
40244;SDS011;25963;42.694;23.600;2024-02-14T07:11:50;35.28;;;20.73;;
40244;SDS011;25963;42.694;23.600;2024-02-14T07:14:16;30.83;;;19.90;;
40244;SDS011;25963;42.694;23.600;2024-02-14T07:16:41;30.25;;;19.95;;
40244;SDS011;25963;42.694;23.600;2024-02-14T07:19:06;29.55;;;19.20;;
40244;SDS011;25963;42.694;23.600;2024-02-14T07:21:32;30.10;;;19.95;;
40244;SDS011;25963;42.694;23.600;2024-02-14T07:23:58;31.13;;;19.77;;
40244;SDS011;25963;42.694;23.600;2024-02-14T07:26:23;27.80;;;18.35;;
40244;SDS011;25963;42.694;23.600;2024-02-14T07:28:49;29.20;;;19.15;;
40244;SDS011;25963;42.694;23.600;2024-02-14T07:31:14;33.03;;;20.58;;
40244;SDS011;25963;42.694;23.600;2024-02-14T07:33:39;30.85;;;20.42;;
40244;SDS011;25963;42.694;23.600;2024-02-14T07:36:05;27.23;;;17.27;;
40244;SDS011;25963;42.694;23.600;2024-02-14T07:38:31;28.08;;;18.42;;
40244;SDS011;25963;42.694;23.600;2024-02-14T07:40:56;34.97;;;20.33;;
40244;SDS011;25963;42.694;23.600;2024-02-14T07:43:22;26.83;;;16.75;;
40244;SDS011;25963;42.694;23.600;2024-02-14T07:45:47;25.52;;;17.65;;
40244;SDS011;25963;42.694;23.600;2024-02-14T07:48:13;25.90;;;16.73;;
40244;SDS011;25963;42.694;23.600;2024-02-14T07:50:39;25.33;;;16.50;;
40244;SDS011;25963;42.694;23.600;2024-02-14T07:53:04;23.67;;;16.58;;
40244;SDS011;25963;42.694;23.600;2024-02-14T07:55:31;26.23;;;17.17;;
40244;SDS011;25963;42.694;23.600;2024-02-14T07:57:56;22.25;;;15.70;;
40244;SDS011;25963;42.694;23.600;2024-02-14T08:00:22;22.55;;;16.38;;
40244;SDS011;25963;42.694;23.600;2024-02-14T08:02:50;23.55;;;16.75;;
40244;SDS011;25963;42.694;23.600;2024-02-14T08:05:16;19.88;;;14.52;;
40244;SDS011;25963;42.694;23.600;2024-02-14T08:07:42;22.58;;;14.80;;
40244;SDS011;25963;42.694;23.600;2024-02-14T08:10:09;22.13;;;15.10;;
40244;SDS011;25963;42.694;23.600;2024-02-14T08:12:35;20.20;;;13.95;;
40244;SDS011;25963;42.694;23.600;2024-02-14T08:15:00;21.67;;;14.32;;
40244;SDS011;25963;42.694;23.600;2024-02-14T08:17:29;19.17;;;13.27;;
40244;SDS011;25963;42.694;23.600;2024-02-14T08:19:55;18.38;;;12.00;;
40244;SDS011;25963;42.694;23.600;2024-02-14T08:22:20;19.92;;;13.75;;
40244;SDS011;25963;42.694;23.600;2024-02-14T08:24:46;18.50;;;13.25;;
40244;SDS011;25963;42.694;23.600;2024-02-14T08:27:11;19.25;;;13.48;;
40244;SDS011;25963;42.694;23.600;2024-02-14T08:29:36;19.60;;;13.90;;
40244;SDS011;25963;42.694;23.600;2024-02-14T08:32:02;20.52;;;14.13;;
40244;SDS011;25963;42.694;23.600;2024-02-14T08:34:28;17.83;;;13.85;;
40244;SDS011;25963;42.694;23.600;2024-02-14T08:36:54;21.10;;;13.38;;
40244;SDS011;25963;42.694;23.600;2024-02-14T08:39:20;17.92;;;12.65;;
40244;SDS011;25963;42.694;23.600;2024-02-14T08:41:45;17.58;;;12.82;;
40244;SDS011;25963;42.694;23.600;2024-02-14T08:44:12;20.52;;;13.63;;
40244;SDS011;25963;42.694;23.600;2024-02-14T08:46:38;17.90;;;13.05;;
40244;SDS011;25963;42.694;23.600;2024-02-14T08:49:04;20.08;;;14.20;;
40244;SDS011;25963;42.694;23.600;2024-02-14T08:51:34;21.88;;;14.95;;
40244;SDS011;25963;42.694;23.600;2024-02-14T08:54:00;27.35;;;18.85;;
40244;SDS011;25963;42.694;23.600;2024-02-14T08:56:29;19.60;;;14.20;;
40244;SDS011;25963;42.694;23.600;2024-02-14T08:58:57;21.98;;;14.88;;
40244;SDS011;25963;42.694;23.600;2024-02-14T09:01:23;18.00;;;14.05;;
40244;SDS011;25963;42.694;23.600;2024-02-14T09:03:48;19.90;;;13.90;;
40244;SDS011;25963;42.694;23.600;2024-02-14T09:06:15;22.08;;;14.45;;
40244;SDS011;25963;42.694;23.600;2024-02-14T09:08:43;18.48;;;13.18;;
40244;SDS011;25963;42.694;23.600;2024-02-14T09:11:09;36.92;;;16.23;;
40244;SDS011;25963;42.694;23.600;2024-02-14T09:13:34;19.25;;;13.25;;
40244;SDS011;25963;42.694;23.600;2024-02-14T09:15:59;21.13;;;14.82;;
40244;SDS011;25963;42.694;23.600;2024-02-14T09:18:25;17.92;;;13.43;;
40244;SDS011;25963;42.694;23.600;2024-02-14T09:20:50;18.58;;;12.93;;
40244;SDS011;25963;42.694;23.600;2024-02-14T09:23:16;22.70;;;15.18;;
40244;SDS011;25963;42.694;23.600;2024-02-14T09:25:47;19.65;;;14.20;;
40244;SDS011;25963;42.694;23.600;2024-02-14T09:28:13;17.65;;;13.05;;
40244;SDS011;25963;42.694;23.600;2024-02-14T09:30:39;20.20;;;14.05;;
40244;SDS011;25963;42.694;23.600;2024-02-14T09:33:05;22.40;;;16.02;;
40244;SDS011;25963;42.694;23.600;2024-02-14T09:35:30;23.30;;;17.75;;
40244;SDS011;25963;42.694;23.600;2024-02-14T09:37:55;19.67;;;14.23;;
40244;SDS011;25963;42.694;23.600;2024-02-14T09:40:21;18.05;;;13.68;;
40244;SDS011;25963;42.694;23.600;2024-02-14T09:42:50;24.50;;;17.30;;
40244;SDS011;25963;42.694;23.600;2024-02-14T09:45:19;18.92;;;13.52;;
40244;SDS011;25963;42.694;23.600;2024-02-14T09:47:45;21.13;;;14.73;;
40244;SDS011;25963;42.694;23.600;2024-02-14T09:50:11;20.55;;;15.30;;
40244;SDS011;25963;42.694;23.600;2024-02-14T09:52:37;18.60;;;13.43;;
40244;SDS011;25963;42.694;23.600;2024-02-14T09:55:03;16.85;;;13.18;;
40244;SDS011;25963;42.694;23.600;2024-02-14T09:57:30;20.83;;;14.07;;
40244;SDS011;25963;42.694;23.600;2024-02-14T09:59:56;19.38;;;14.48;;
40244;SDS011;25963;42.694;23.600;2024-02-14T10:02:24;17.75;;;14.07;;
40244;SDS011;25963;42.694;23.600;2024-02-14T10:04:50;19.75;;;13.73;;
40244;SDS011;25963;42.694;23.600;2024-02-14T10:07:15;24.23;;;14.70;;
40244;SDS011;25963;42.694;23.600;2024-02-14T10:09:41;18.98;;;14.35;;
40244;SDS011;25963;42.694;23.600;2024-02-14T10:12:07;16.77;;;12.90;;
40244;SDS011;25963;42.694;23.600;2024-02-14T10:14:36;14.98;;;11.65;;
40244;SDS011;25963;42.694;23.600;2024-02-14T10:17:03;16.58;;;12.00;;
40244;SDS011;25963;42.694;23.600;2024-02-14T10:19:29;20.02;;;13.32;;
40244;SDS011;25963;42.694;23.600;2024-02-14T10:21:58;18.48;;;13.40;;
40244;SDS011;25963;42.694;23.600;2024-02-14T10:24:25;17.38;;;12.98;;
40244;SDS011;25963;42.694;23.600;2024-02-14T10:26:52;18.83;;;13.65;;
40244;SDS011;25963;42.694;23.600;2024-02-14T10:29:19;18.33;;;13.07;;
40244;SDS011;25963;42.694;23.600;2024-02-14T10:31:45;18.70;;;12.95;;
40244;SDS011;25963;42.694;23.600;2024-02-14T10:34:11;18.23;;;12.93;;
40244;SDS011;25963;42.694;23.600;2024-02-14T10:36:37;19.55;;;12.80;;
40244;SDS011;25963;42.694;23.600;2024-02-14T10:39:05;21.10;;;14.85;;
40244;SDS011;25963;42.694;23.600;2024-02-14T10:41:32;15.98;;;12.68;;
40244;SDS011;25963;42.694;23.600;2024-02-14T10:44:01;24.40;;;15.35;;
40244;SDS011;25963;42.694;23.600;2024-02-14T10:46:35;25.52;;;15.32;;
40244;SDS011;25963;42.694;23.600;2024-02-14T10:49:02;18.30;;;12.23;;
40244;SDS011;25963;42.694;23.600;2024-02-14T10:51:32;20.30;;;12.93;;
40244;SDS011;25963;42.694;23.600;2024-02-14T10:54:04;16.58;;;11.65;;
40244;SDS011;25963;42.694;23.600;2024-02-14T10:56:36;17.27;;;11.68;;
40244;SDS011;25963;42.694;23.600;2024-02-14T10:59:04;14.38;;;10.77;;
40244;SDS011;25963;42.694;23.600;2024-02-14T11:01:31;19.83;;;12.35;;
40244;SDS011;25963;42.694;23.600;2024-02-14T11:03:58;19.67;;;13.63;;
40244;SDS011;25963;42.694;23.600;2024-02-14T11:06:25;17.23;;;11.95;;
40244;SDS011;25963;42.694;23.600;2024-02-14T11:09:01;18.65;;;12.60;;
40244;SDS011;25963;42.694;23.600;2024-02-14T11:11:32;17.70;;;13.10;;
40244;SDS011;25963;42.694;23.600;2024-02-14T11:13:58;18.67;;;11.63;;
40244;SDS011;25963;42.694;23.600;2024-02-14T11:16:25;19.73;;;13.32;;
40244;SDS011;25963;42.694;23.600;2024-02-14T11:21:36;17.27;;;12.77;;
40244;SDS011;25963;42.694;23.600;2024-02-14T11:24:05;18.48;;;12.20;;
40244;SDS011;25963;42.694;23.600;2024-02-14T11:26:39;17.70;;;12.07;;
40244;SDS011;25963;42.694;23.600;2024-02-14T11:29:17;16.13;;;11.77;;
40244;SDS011;25963;42.694;23.600;2024-02-14T11:31:43;16.13;;;11.88;;
40244;SDS011;25963;42.694;23.600;2024-02-14T11:34:12;18.58;;;12.65;;
40244;SDS011;25963;42.694;23.600;2024-02-14T11:36:38;18.10;;;11.63;;
40244;SDS011;25963;42.694;23.600;2024-02-14T11:39:06;16.05;;;11.65;;
40244;SDS011;25963;42.694;23.600;2024-02-14T11:41:34;16.58;;;11.77;;
40244;SDS011;25963;42.694;23.600;2024-02-14T11:44:01;17.58;;;11.43;;
40244;SDS011;25963;42.694;23.600;2024-02-14T11:46:29;14.85;;;11.05;;
40244;SDS011;25963;42.694;23.600;2024-02-14T11:48:58;20.10;;;13.52;;
40244;SDS011;25963;42.694;23.600;2024-02-14T11:51:26;17.25;;;12.30;;
40244;SDS011;25963;42.694;23.600;2024-02-14T11:53:52;20.40;;;13.43;;
40244;SDS011;25963;42.694;23.600;2024-02-14T11:56:18;17.42;;;11.82;;
40244;SDS011;25963;42.694;23.600;2024-02-14T11:58:47;18.98;;;12.57;;
40244;SDS011;25963;42.694;23.600;2024-02-14T12:01:15;18.58;;;13.10;;
40244;SDS011;25963;42.694;23.600;2024-02-14T12:03:42;24.60;;;15.25;;
40244;SDS011;25963;42.694;23.600;2024-02-14T12:06:09;25.17;;;14.73;;
40244;SDS011;25963;42.694;23.600;2024-02-14T12:08:35;19.65;;;12.15;;
40244;SDS011;25963;42.694;23.600;2024-02-14T12:11:01;19.75;;;13.23;;
40244;SDS011;25963;42.694;23.600;2024-02-14T12:13:27;25.55;;;14.13;;
40244;SDS011;25963;42.694;23.600;2024-02-14T12:15:57;20.80;;;12.18;;
40244;SDS011;25963;42.694;23.600;2024-02-14T12:18:22;16.25;;;12.77;;
40244;SDS011;25963;42.694;23.600;2024-02-14T12:20:48;16.92;;;11.48;;
40244;SDS011;25963;42.694;23.600;2024-02-14T12:23:16;21.40;;;13.48;;
40244;SDS011;25963;42.694;23.600;2024-02-14T12:25:42;19.05;;;12.25;;
40244;SDS011;25963;42.694;23.600;2024-02-14T12:28:08;21.63;;;14.35;;
40244;SDS011;25963;42.694;23.600;2024-02-14T12:30:42;16.05;;;10.95;;
40244;SDS011;25963;42.694;23.600;2024-02-14T12:33:12;17.73;;;11.57;;
40244;SDS011;25963;42.694;23.600;2024-02-14T12:35:42;16.77;;;11.30;;
40244;SDS011;25963;42.694;23.600;2024-02-14T12:38:10;17.05;;;11.52;;
40244;SDS011;25963;42.694;23.600;2024-02-14T12:40:37;16.00;;;11.82;;
40244;SDS011;25963;42.694;23.600;2024-02-14T12:43:03;27.00;;;14.70;;
40244;SDS011;25963;42.694;23.600;2024-02-14T12:45:30;14.55;;;11.07;;
40244;SDS011;25963;42.694;23.600;2024-02-14T12:47:56;19.75;;;11.75;;
40244;SDS011;25963;42.694;23.600;2024-02-14T12:50:22;18.52;;;11.88;;
40244;SDS011;25963;42.694;23.600;2024-02-14T12:52:47;14.57;;;10.85;;
40244;SDS011;25963;42.694;23.600;2024-02-14T12:55:13;18.55;;;11.80;;
40244;SDS011;25963;42.694;23.600;2024-02-14T12:57:39;20.25;;;11.82;;
40244;SDS011;25963;42.694;23.600;2024-02-14T13:00:05;16.45;;;11.13;;
40244;SDS011;25963;42.694;23.600;2024-02-14T13:02:33;20.08;;;11.57;;
40244;SDS011;25963;42.694;23.600;2024-02-14T13:04:59;14.10;;;10.50;;
40244;SDS011;25963;42.694;23.600;2024-02-14T13:07:25;14.07;;;10.18;;
40244;SDS011;25963;42.694;23.600;2024-02-14T13:09:51;15.63;;;10.63;;
40244;SDS011;25963;42.694;23.600;2024-02-14T13:12:17;14.75;;;10.40;;
40244;SDS011;25963;42.694;23.600;2024-02-14T13:14:42;17.95;;;10.35;;
40244;SDS011;25963;42.694;23.600;2024-02-14T13:17:08;17.23;;;10.75;;
40244;SDS011;25963;42.694;23.600;2024-02-14T13:19:34;15.18;;;9.55;;
40244;SDS011;25963;42.694;23.600;2024-02-14T13:21:59;16.02;;;11.65;;
40244;SDS011;25963;42.694;23.600;2024-02-14T13:24:25;14.52;;;11.02;;
40244;SDS011;25963;42.694;23.600;2024-02-14T13:26:50;19.08;;;12.73;;
40244;SDS011;25963;42.694;23.600;2024-02-14T13:29:15;23.55;;;17.90;;
40244;SDS011;25963;42.694;23.600;2024-02-14T13:31:42;30.40;;;23.50;;
40244;SDS011;25963;42.694;23.600;2024-02-14T13:34:07;18.30;;;12.43;;
40244;SDS011;25963;42.694;23.600;2024-02-14T13:36:33;17.30;;;11.05;;
40244;SDS011;25963;42.694;23.600;2024-02-14T13:38:58;30.63;;;15.95;;
40244;SDS011;25963;42.694;23.600;2024-02-14T13:41:25;14.90;;;11.55;;
40244;SDS011;25963;42.694;23.600;2024-02-14T13:43:51;16.85;;;11.65;;
40244;SDS011;25963;42.694;23.600;2024-02-14T13:46:16;21.38;;;12.50;;
40244;SDS011;25963;42.694;23.600;2024-02-14T13:48:43;24.95;;;13.68;;
40244;SDS011;25963;42.694;23.600;2024-02-14T13:51:08;18.25;;;11.80;;
40244;SDS011;25963;42.694;23.600;2024-02-14T13:53:35;21.83;;;12.05;;
40244;SDS011;25963;42.694;23.600;2024-02-14T13:56:00;24.00;;;14.25;;
40244;SDS011;25963;42.694;23.600;2024-02-14T13:58:26;26.88;;;14.90;;
40244;SDS011;25963;42.694;23.600;2024-02-14T14:00:51;19.85;;;12.38;;
40244;SDS011;25963;42.694;23.600;2024-02-14T14:03:17;18.73;;;13.13;;
40244;SDS011;25963;42.694;23.600;2024-02-14T14:05:43;19.60;;;11.57;;